Terminal Aerodrome Forecast
Issued by NWS Sioux Falls, SD

Home | Current Version | Previous Version | Text Only | Print | Product List | Glossary Off
Versions: 1 2 3 4 5 6 7 8 9 10 11 12 13 14 15 16 17 18 19 20

000
FTUS43 KFSD 211120
TAFHON
TAF
KHON 211120Z 2112/2212 16008KT 3SM BR OVC004
     FM211700 15010KT 4SM BR OVC007
     FM212000 15011KT 6SM BR OVC015
     FM220500 19007KT 4SM -RAPL BR OVC010
     FM221000 26006KT 2SM -SN BR OVC005=

USA.gov is the U.S. government's official web portal to all federal, state and local government web resources and services.